Atkins, Arkansas
Current Conditions -  °F | °C
As of 11:53 AM on Thursday 29 Jan 2015 (Local Time) from KRUE Reporting Station
Clear Clear  
Wind Chill: 62°   Ceiling: Unl
Heat Index: 62°   Visibility: 10mi
Dew Point: 38°   Wind: 15mph
Humidity: 41%   Direction: 290°WNW
Pressure: 30.18"   Gusts: 25mph
Location:  35.25°N, 92.94°W
Report Text: KRUE 291753Z AUTO 29013G22KT 10SM CLR 17/03 A3018 RMK AO2 SLP216 T01670033 10178 20039 51021
Loading
Personal Weather Stations






























Interactive Weather Map New forecast layout! Learn more

10-Day Weather Forecast

Advertisements
Track Severe Weather on mobile